createdAt,value
2022-10-05T00:03:37.229Z,100802.94
2022-10-05T00:08:39.177Z,100801.69
2022-10-05T00:13:42.044Z,100804.88
2022-10-05T00:18:50.640Z,100803.16
2022-10-05T00:23:55.845Z,100803.94
2022-10-05T00:28:57.733Z,100791.94
2022-10-05T00:33:59.445Z,100786.59
2022-10-05T00:39:02.082Z,100804.22
2022-10-05T00:44:09.797Z,100803.19
2022-10-05T00:49:46.312Z,100796.28
2022-10-05T00:55:06.742Z,100800.50
2022-10-05T01:00:13.904Z,100798.84
2022-10-05T01:05:56.942Z,100802.06
2022-10-05T01:11:20.828Z,100798.75
2022-10-05T01:16:41.613Z,100801.22
2022-10-05T01:21:54.264Z,100801.47
2022-10-05T01:27:08.834Z,100800.56
2022-10-05T01:32:23.771Z,100803.88
2022-10-05T01:37:37.965Z,100777.97
2022-10-05T01:43:04.100Z,100775.41
2022-10-05T01:48:13.741Z,100764.22
2022-10-05T01:53:45.817Z,100760.59
2022-10-05T01:59:02.137Z,100754.53
2022-10-05T02:04:29.576Z,100753.13
2022-10-05T02:09:45.291Z,100755.78
2022-10-05T02:14:55.547Z,100732.22
2022-10-05T02:20:05.118Z,100732.13
2022-10-05T02:25:14.551Z,100718.78
2022-10-05T02:30:17.826Z,100738.38
2022-10-05T02:35:22.771Z,100732.63
2022-10-05T02:41:03.151Z,100734.06
2022-10-05T02:46:19.281Z,100744.00
2022-10-05T02:51:26.901Z,100720.44
2022-10-05T02:56:37.254Z,100726.59
2022-10-05T03:01:51.695Z,100719.38
2022-10-05T03:07:18.647Z,100724.56
2022-10-05T03:12:37.355Z,100715.72
2022-10-05T03:18:05.873Z,100709.53
2022-10-05T03:23:17.282Z,100718.06
2022-10-05T03:28:50.736Z,100718.28
2022-10-05T03:34:00.577Z,100694.69
2022-10-05T03:39:20.354Z,100698.81
2022-10-05T03:45:03.426Z,100676.00
2022-10-05T03:50:20.124Z,100699.09
2022-10-05T03:55:37.274Z,100701.81
2022-10-05T04:00:43.864Z,100701.31
2022-10-05T04:05:50.773Z,100706.66
2022-10-05T04:10:57.104Z,100692.47
2022-10-05T04:16:08.734Z,100667.25
2022-10-05T04:21:32.852Z,100669.84
2022-10-05T04:26:49.892Z,100678.06
2022-10-05T04:32:05.583Z,100673.06
2022-10-05T04:37:35.158Z,100687.19
2022-10-05T04:42:52.616Z,100696.72
2022-10-05T04:48:35.629Z,100703.56
2022-10-05T04:53:54.145Z,100706.84
2022-10-05T04:59:17.029Z,100708.50
2022-10-05T05:05:03.538Z,100719.25
2022-10-05T05:10:43.683Z,100727.00
2022-10-05T05:16:44.495Z,100727.00
2022-10-05T05:22:02.853Z,100734.94
2022-10-05T05:27:43.232Z,100737.56
2022-10-05T05:33:14.602Z,100741.84
2022-10-05T05:38:16.765Z,100741.16
2022-10-05T05:43:30.454Z,100746.44
2022-10-05T05:48:38.931Z,100756.38
2022-10-05T05:53:48.873Z,100770.81
2022-10-05T05:58:57.818Z,100779.56
2022-10-05T06:04:15.779Z,100767.13
2022-10-05T06:09:41.774Z,100767.75
2022-10-05T06:15:05.739Z,100764.88
2022-10-05T06:20:20.441Z,100770.22
2022-10-05T06:25:31.205Z,100766.19
2022-10-05T06:31:02.057Z,100766.25
2022-10-05T06:36:09.507Z,100791.16
2022-10-05T06:41:14.436Z,100790.06
2022-10-05T06:46:51.577Z,100788.88
2022-10-05T06:52:12.977Z,100754.34
2022-10-05T06:57:49.468Z,100756.78
2022-10-05T07:03:10.409Z,100756.69
2022-10-05T07:08:38.236Z,100761.72
2022-10-05T07:13:58.320Z,100772.50
2022-10-05T07:19:19.123Z,100768.41
2022-10-05T07:24:33.841Z,100780.00
2022-10-05T07:29:54.266Z,100783.06
2022-10-05T07:35:01.730Z,100783.72
2022-10-05T07:40:09.586Z,100783.19
2022-10-05T07:45:52.300Z,100786.16
2022-10-05T07:50:54.778Z,100784.00
2022-10-05T07:56:03.228Z,100772.50
2022-10-05T08:01:26.596Z,100762.69
2022-10-05T08:06:38.398Z,100770.56
2022-10-05T08:12:12.497Z,100769.88
2022-10-05T08:17:39.901Z,100768.41
2022-10-05T08:22:47.931Z,100755.91
2022-10-05T08:28:05.119Z,100749.72
2022-10-05T08:33:12.832Z,100752.19
2022-10-05T08:38:17.198Z,100757.44
2022-10-05T08:44:03.828Z,100761.94
2022-10-05T08:49:11.698Z,100767.22
2022-10-05T08:54:16.398Z,100744.59
2022-10-05T08:59:52.849Z,100739.63
2022-10-05T09:05:15.319Z,100719.47
2022-10-05T09:10:34.172Z,100725.59
2022-10-05T09:16:09.460Z,100718.06
2022-10-05T09:21:29.801Z,100718.09
2022-10-05T09:26:40.482Z,100708.00
2022-10-05T09:32:06.656Z,100705.47
2022-10-05T09:37:33.434Z,100702.91
2022-10-05T09:42:54.035Z,100706.28
2022-10-05T09:48:27.247Z,100719.81
2022-10-05T09:53:40.711Z,100719.81
2022-10-05T09:59:24.121Z,100728.28
2022-10-05T10:05:01.723Z,100718.84
2022-10-05T10:10:40.072Z,100706.09
2022-10-05T10:16:09.243Z,100702.66
2022-10-05T10:21:22.952Z,100694.19
2022-10-05T10:26:48.590Z,100693.28
2022-10-05T10:32:14.570Z,100689.06
2022-10-05T10:37:39.412Z,100678.00
2022-10-05T10:42:59.232Z,100690.59
2022-10-05T10:48:11.253Z,100684.53
2022-10-05T10:53:40.318Z,100681.91
2022-10-05T10:59:03.991Z,100684.38
2022-10-05T11:04:40.327Z,100674.16
2022-10-05T11:10:12.762Z,100665.63
2022-10-05T11:15:52.241Z,100664.66
2022-10-05T11:21:03.100Z,100646.09
2022-10-05T11:26:34.370Z,100642.63
2022-10-05T11:32:06.286Z,100641.69
2022-10-05T11:37:39.869Z,100633.91
2022-10-05T11:42:58.730Z,100632.03
2022-10-05T11:48:25.678Z,100624.28
2022-10-05T11:53:46.471Z,100609.84
2022-10-05T11:58:58.435Z,100621.69
2022-10-05T12:04:15.452Z,100630.84
2022-10-05T12:09:36.438Z,100621.38
2022-10-05T12:15:01.689Z,100618.72
2022-10-05T12:20:16.266Z,100604.13
2022-10-05T12:25:21.680Z,100608.25
2022-10-05T12:30:34.896Z,100604.25
2022-10-05T12:35:50.998Z,100608.41
2022-10-05T12:41:04.329Z,100604.25
2022-10-05T12:46:26.709Z,100596.63
2022-10-05T12:51:43.543Z,100600.84
2022-10-05T12:57:06.769Z,100588.94
2022-10-05T13:02:27.640Z,100590.63
2022-10-05T13:07:34.152Z,100582.19
2022-10-05T13:12:48.766Z,100585.41
2022-10-05T13:18:02.472Z,100578.56
2022-10-05T13:23:31.394Z,100584.56
2022-10-05T13:29:00.553Z,100581.16
2022-10-05T13:34:40.433Z,100579.59
2022-10-05T13:39:48.343Z,100586.34
2022-10-05T13:44:53.883Z,100585.53
2022-10-05T13:50:23.620Z,100579.53
2022-10-05T13:55:37.966Z,100583.72
2022-10-05T14:00:54.185Z,100563.28
2022-10-05T14:05:58.338Z,100565.94
2022-10-05T14:11:00.483Z,100563.44
2022-10-05T14:16:17.785Z,100572.91
2022-10-05T14:21:24.934Z,100550.94
2022-10-05T14:26:27.821Z,100570.38
2022-10-05T14:31:35.407Z,100555.16
2022-10-05T14:36:43.940Z,100555.22
2022-10-05T14:41:48.922Z,100545.97
2022-10-05T14:47:02.693Z,100540.97
2022-10-05T14:52:51.686Z,100543.53
2022-10-05T14:58:00.427Z,100549.53
2022-10-05T15:03:18.744Z,100534.38
2022-10-05T15:08:31.314Z,100534.47
2022-10-05T15:13:40.130Z,100526.84
2022-10-05T15:18:51.393Z,100532.00
2022-10-05T15:24:14.385Z,100530.31
2022-10-05T15:29:22.393Z,100530.41
2022-10-05T15:34:40.667Z,100524.63
2022-10-05T15:39:55.006Z,100539.94
2022-10-05T15:45:20.766Z,100539.09
2022-10-05T15:50:26.475Z,100532.34
2022-10-05T15:55:43.586Z,100518.94
2022-10-05T16:00:58.779Z,100528.28
2022-10-05T16:06:24.914Z,100520.78
2022-10-05T16:11:32.340Z,100529.31
2022-10-05T16:16:42.103Z,100526.78
2022-10-05T16:21:58.113Z,100517.59
2022-10-05T16:27:07.279Z,100530.34
2022-10-05T16:32:30.833Z,100534.59
2022-10-05T16:37:37.027Z,100529.56
2022-10-05T16:42:52.730Z,100538.91
2022-10-05T16:48:00.656Z,100548.28
2022-10-05T16:53:12.560Z,100546.63
2022-10-05T16:58:31.010Z,100551.75
2022-10-05T17:03:52.028Z,100566.97
2022-10-05T17:09:18.493Z,100561.94
2022-10-05T17:14:35.859Z,100576.34
2022-10-05T17:19:48.965Z,100574.69
2022-10-05T17:25:09.313Z,100568.84
2022-10-05T17:30:31.644Z,100574.00
2022-10-05T17:36:00.943Z,100585.91
2022-10-05T17:41:19.596Z,100571.53
2022-10-05T17:46:38.742Z,100586.81
2022-10-05T17:52:16.578Z,100588.53
2022-10-05T17:57:24.402Z,100594.44
2022-10-05T18:02:36.163Z,100592.78
2022-10-05T18:07:48.142Z,100587.69
2022-10-05T18:13:20.120Z,100598.72
2022-10-05T18:18:40.805Z,100591.94
2022-10-05T18:23:59.986Z,100580.94
2022-10-05T18:29:43.431Z,100592.81
2022-10-05T18:35:02.066Z,100591.13
2022-10-05T18:40:13.305Z,100578.44
2022-10-05T18:45:43.015Z,100596.19
2022-10-05T18:51:01.475Z,100584.38
2022-10-05T18:56:30.113Z,100586.06
2022-10-05T19:01:58.779Z,100586.94
2022-10-05T19:07:07.802Z,100597.03
2022-10-05T19:12:31.405Z,100595.38
2022-10-05T19:17:55.064Z,100598.78
2022-10-05T19:23:57.180Z,100600.47
2022-10-05T19:29:16.490Z,100604.72
2022-10-05T19:34:45.994Z,100597.94
2022-10-05T19:39:58.191Z,100601.31
2022-10-05T19:45:18.770Z,100608.09
2022-10-05T19:50:29.887Z,100612.31
2022-10-05T19:55:35.438Z,100628.41
2022-10-05T20:00:37.878Z,100636.88
2022-10-05T20:05:40.775Z,100637.72
2022-10-05T20:10:42.754Z,100641.91
2022-10-05T20:16:26.959Z,100642.78
2022-10-05T20:21:43.294Z,100639.38
2022-10-05T20:27:06.685Z,100647.81
2022-10-05T20:32:18.102Z,100648.66
2022-10-05T20:37:20.122Z,100651.19
2022-10-05T20:42:23.862Z,100663.88
2022-10-05T20:47:25.825Z,100666.41
2022-10-05T20:52:27.411Z,100668.06
2022-10-05T20:57:28.972Z,100653.69
2022-10-05T21:02:31.062Z,100662.16
2022-10-05T21:07:34.265Z,100670.59
2022-10-05T21:12:36.129Z,100676.53
2022-10-05T21:17:39.129Z,100673.94
2022-10-05T21:22:41.125Z,100667.94
2022-10-05T21:27:42.914Z,100678.13
2022-10-05T21:32:44.990Z,100684.03
2022-10-05T21:37:46.697Z,100679.75
2022-10-05T21:42:48.399Z,100683.91
2022-10-05T21:47:50.392Z,100683.06
2022-10-05T21:52:53.539Z,100674.59
2022-10-05T21:57:58.559Z,100693.25
2022-10-05T22:03:00.212Z,100682.13
2022-10-05T22:08:02.799Z,100688.88
2022-10-05T22:13:04.637Z,100677.81
2022-10-05T22:18:06.766Z,100665.94
2022-10-05T22:23:08.639Z,100673.50
2022-10-05T22:28:13.243Z,100682.75
2022-10-05T22:33:14.872Z,100668.31
2022-10-05T22:38:16.670Z,100674.16
2022-10-05T22:43:18.805Z,100678.28
2022-10-05T22:48:20.661Z,100694.34
2022-10-05T22:53:22.791Z,100696.84
2022-10-05T22:58:25.053Z,100696.81
2022-10-05T23:03:27.127Z,100705.19
2022-10-05T23:08:32.841Z,100712.88
2022-10-05T23:13:34.549Z,100711.06
2022-10-05T23:18:37.149Z,100721.19
2022-10-05T23:23:41.013Z,100729.56
2022-10-05T23:28:47.169Z,100730.28
2022-10-05T23:33:49.824Z,100723.56
2022-10-05T23:38:52.120Z,100722.66
2022-10-05T23:43:55.432Z,100723.38
2022-10-05T23:48:57.119Z,100718.97
2022-10-05T23:53:59.806Z,100724.56
2022-10-05T23:59:01.715Z,100725.81
